sensor_id;sensor_type;location;lat;lon;timestamp;P1;durP1;ratioP1;P2;durP2;ratioP2
22646;SDS011;11490;42.726;23.268;2023-04-22T00:00:14;11.27;;;8.10;;
22646;SDS011;11490;42.726;23.268;2023-04-22T00:02:41;9.88;;;6.57;;
22646;SDS011;11490;42.726;23.268;2023-04-22T00:05:07;11.48;;;7.93;;
22646;SDS011;11490;42.726;23.268;2023-04-22T00:07:37;12.23;;;6.72;;
22646;SDS011;11490;42.726;23.268;2023-04-22T00:10:02;16.15;;;7.72;;
22646;SDS011;11490;42.726;23.268;2023-04-22T00:12:28;10.77;;;7.47;;
22646;SDS011;11490;42.726;23.268;2023-04-22T00:14:53;8.68;;;6.18;;
22646;SDS011;11490;42.726;23.268;2023-04-22T00:17:19;12.73;;;8.00;;
22646;SDS011;11490;42.726;23.268;2023-04-22T00:19:44;10.73;;;7.05;;
22646;SDS011;11490;42.726;23.268;2023-04-22T00:22:10;12.05;;;7.75;;
22646;SDS011;11490;42.726;23.268;2023-04-22T00:24:35;13.88;;;7.22;;
22646;SDS011;11490;42.726;23.268;2023-04-22T00:27:00;11.90;;;7.10;;
22646;SDS011;11490;42.726;23.268;2023-04-22T00:29:26;11.82;;;7.53;;
22646;SDS011;11490;42.726;23.268;2023-04-22T00:31:52;10.88;;;7.20;;
22646;SDS011;11490;42.726;23.268;2023-04-22T00:34:17;11.52;;;8.00;;
22646;SDS011;11490;42.726;23.268;2023-04-22T00:36:43;10.88;;;7.22;;
22646;SDS011;11490;42.726;23.268;2023-04-22T00:39:09;8.70;;;6.85;;
22646;SDS011;11490;42.726;23.268;2023-04-22T00:41:35;11.85;;;7.57;;
22646;SDS011;11490;42.726;23.268;2023-04-22T00:44:01;12.95;;;6.88;;
22646;SDS011;11490;42.726;23.268;2023-04-22T00:46:27;10.45;;;6.88;;
22646;SDS011;11490;42.726;23.268;2023-04-22T00:48:52;7.82;;;6.57;;
22646;SDS011;11490;42.726;23.268;2023-04-22T00:51:18;11.82;;;6.43;;
22646;SDS011;11490;42.726;23.268;2023-04-22T00:53:44;8.95;;;6.00;;
22646;SDS011;11490;42.726;23.268;2023-04-22T00:56:10;7.70;;;6.18;;
22646;SDS011;11490;42.726;23.268;2023-04-22T00:58:36;6.60;;;5.78;;
22646;SDS011;11490;42.726;23.268;2023-04-22T01:01:02;16.23;;;7.85;;
22646;SDS011;11490;42.726;23.268;2023-04-22T01:03:27;16.65;;;8.32;;
22646;SDS011;11490;42.726;23.268;2023-04-22T01:05:54;14.35;;;8.82;;
22646;SDS011;11490;42.726;23.268;2023-04-22T01:08:20;13.63;;;8.68;;
22646;SDS011;11490;42.726;23.268;2023-04-22T01:10:45;13.23;;;8.35;;
22646;SDS011;11490;42.726;23.268;2023-04-22T01:13:11;13.05;;;8.15;;
22646;SDS011;11490;42.726;23.268;2023-04-22T01:15:36;9.73;;;8.10;;
22646;SDS011;11490;42.726;23.268;2023-04-22T01:18:02;14.88;;;9.30;;
22646;SDS011;11490;42.726;23.268;2023-04-22T01:20:28;14.45;;;7.72;;
22646;SDS011;11490;42.726;23.268;2023-04-22T01:22:54;14.32;;;8.40;;
22646;SDS011;11490;42.726;23.268;2023-04-22T01:25:26;13.35;;;8.18;;
22646;SDS011;11490;42.726;23.268;2023-04-22T01:27:51;14.02;;;8.82;;
22646;SDS011;11490;42.726;23.268;2023-04-22T01:30:17;15.32;;;9.63;;
22646;SDS011;11490;42.726;23.268;2023-04-22T01:32:42;18.33;;;11.02;;
22646;SDS011;11490;42.726;23.268;2023-04-22T01:35:09;12.93;;;9.45;;
22646;SDS011;11490;42.726;23.268;2023-04-22T01:37:34;14.23;;;9.63;;
22646;SDS011;11490;42.726;23.268;2023-04-22T01:40:00;13.93;;;8.20;;
22646;SDS011;11490;42.726;23.268;2023-04-22T01:42:26;13.27;;;8.40;;
22646;SDS011;11490;42.726;23.268;2023-04-22T01:44:51;10.00;;;6.90;;
22646;SDS011;11490;42.726;23.268;2023-04-22T01:47:17;12.23;;;7.75;;
22646;SDS011;11490;42.726;23.268;2023-04-22T01:49:42;9.82;;;6.82;;
22646;SDS011;11490;42.726;23.268;2023-04-22T01:52:08;10.63;;;7.63;;
22646;SDS011;11490;42.726;23.268;2023-04-22T01:54:33;8.93;;;6.93;;
22646;SDS011;11490;42.726;23.268;2023-04-22T01:56:59;11.55;;;7.68;;
22646;SDS011;11490;42.726;23.268;2023-04-22T01:59:26;9.23;;;6.07;;
22646;SDS011;11490;42.726;23.268;2023-04-22T02:01:51;9.07;;;6.88;;
22646;SDS011;11490;42.726;23.268;2023-04-22T02:04:16;10.27;;;7.25;;
22646;SDS011;11490;42.726;23.268;2023-04-22T02:06:42;9.55;;;6.35;;
22646;SDS011;11490;42.726;23.268;2023-04-22T02:09:07;11.50;;;7.45;;
22646;SDS011;11490;42.726;23.268;2023-04-22T02:11:32;14.57;;;9.38;;
22646;SDS011;11490;42.726;23.268;2023-04-22T02:13:58;15.77;;;7.93;;
22646;SDS011;11490;42.726;23.268;2023-04-22T02:16:23;14.38;;;8.18;;
22646;SDS011;11490;42.726;23.268;2023-04-22T02:18:48;19.85;;;8.45;;
22646;SDS011;11490;42.726;23.268;2023-04-22T02:21:14;14.65;;;8.02;;
22646;SDS011;11490;42.726;23.268;2023-04-22T02:23:39;11.85;;;7.13;;
22646;SDS011;11490;42.726;23.268;2023-04-22T02:26:05;13.90;;;7.78;;
22646;SDS011;11490;42.726;23.268;2023-04-22T02:28:31;14.73;;;7.50;;
22646;SDS011;11490;42.726;23.268;2023-04-22T02:30:57;10.95;;;6.95;;
22646;SDS011;11490;42.726;23.268;2023-04-22T02:33:22;9.88;;;6.28;;
22646;SDS011;11490;42.726;23.268;2023-04-22T02:35:47;9.13;;;5.93;;
22646;SDS011;11490;42.726;23.268;2023-04-22T02:38:13;8.52;;;6.00;;
22646;SDS011;11490;42.726;23.268;2023-04-22T02:40:38;8.93;;;7.28;;
22646;SDS011;11490;42.726;23.268;2023-04-22T02:43:04;10.82;;;6.80;;
22646;SDS011;11490;42.726;23.268;2023-04-22T02:45:29;11.07;;;7.00;;
22646;SDS011;11490;42.726;23.268;2023-04-22T02:47:54;8.82;;;6.97;;
22646;SDS011;11490;42.726;23.268;2023-04-22T02:50:20;10.27;;;7.50;;
22646;SDS011;11490;42.726;23.268;2023-04-22T02:52:45;14.13;;;8.25;;
22646;SDS011;11490;42.726;23.268;2023-04-22T02:55:11;11.75;;;7.47;;
22646;SDS011;11490;42.726;23.268;2023-04-22T02:57:36;10.00;;;7.30;;
22646;SDS011;11490;42.726;23.268;2023-04-22T03:00:01;15.57;;;9.65;;
22646;SDS011;11490;42.726;23.268;2023-04-22T03:02:28;15.38;;;8.68;;
22646;SDS011;11490;42.726;23.268;2023-04-22T03:04:54;14.52;;;7.78;;
22646;SDS011;11490;42.726;23.268;2023-04-22T03:07:19;17.25;;;7.78;;
22646;SDS011;11490;42.726;23.268;2023-04-22T03:09:45;14.07;;;7.68;;
22646;SDS011;11490;42.726;23.268;2023-04-22T03:12:10;14.30;;;9.10;;
22646;SDS011;11490;42.726;23.268;2023-04-22T03:14:35;11.05;;;7.78;;
22646;SDS011;11490;42.726;23.268;2023-04-22T03:17:01;13.27;;;7.88;;
22646;SDS011;11490;42.726;23.268;2023-04-22T03:19:26;15.45;;;9.30;;
22646;SDS011;11490;42.726;23.268;2023-04-22T03:21:52;13.68;;;8.93;;
22646;SDS011;11490;42.726;23.268;2023-04-22T03:24:17;13.00;;;8.52;;
22646;SDS011;11490;42.726;23.268;2023-04-22T03:26:43;12.35;;;8.25;;
22646;SDS011;11490;42.726;23.268;2023-04-22T03:29:08;13.38;;;7.82;;
22646;SDS011;11490;42.726;23.268;2023-04-22T03:31:34;16.73;;;8.45;;
22646;SDS011;11490;42.726;23.268;2023-04-22T03:33:59;16.58;;;10.45;;
22646;SDS011;11490;42.726;23.268;2023-04-22T03:36:25;18.55;;;10.32;;
22646;SDS011;11490;42.726;23.268;2023-04-22T03:38:52;21.73;;;12.40;;
22646;SDS011;11490;42.726;23.268;2023-04-22T03:41:17;13.77;;;8.65;;
22646;SDS011;11490;42.726;23.268;2023-04-22T03:43:43;19.30;;;8.73;;
22646;SDS011;11490;42.726;23.268;2023-04-22T03:46:08;11.90;;;8.02;;
22646;SDS011;11490;42.726;23.268;2023-04-22T03:48:33;14.43;;;9.73;;
22646;SDS011;11490;42.726;23.268;2023-04-22T03:51:00;17.15;;;9.25;;
22646;SDS011;11490;42.726;23.268;2023-04-22T03:53:26;9.55;;;7.45;;
22646;SDS011;11490;42.726;23.268;2023-04-22T03:55:51;13.20;;;9.55;;
22646;SDS011;11490;42.726;23.268;2023-04-22T03:58:17;17.83;;;10.18;;
22646;SDS011;11490;42.726;23.268;2023-04-22T04:00:42;17.23;;;12.45;;
22646;SDS011;11490;42.726;23.268;2023-04-22T04:03:08;24.83;;;11.23;;
22646;SDS011;11490;42.726;23.268;2023-04-22T04:05:33;15.30;;;9.20;;
22646;SDS011;11490;42.726;23.268;2023-04-22T04:07:59;19.33;;;10.20;;
22646;SDS011;11490;42.726;23.268;2023-04-22T04:10:25;13.65;;;9.77;;
22646;SDS011;11490;42.726;23.268;2023-04-22T04:12:50;20.58;;;10.63;;
22646;SDS011;11490;42.726;23.268;2023-04-22T04:15:16;14.75;;;8.50;;
22646;SDS011;11490;42.726;23.268;2023-04-22T04:17:43;16.73;;;9.63;;
22646;SDS011;11490;42.726;23.268;2023-04-22T04:20:10;15.43;;;8.98;;
22646;SDS011;11490;42.726;23.268;2023-04-22T04:22:35;16.05;;;8.80;;
22646;SDS011;11490;42.726;23.268;2023-04-22T04:25:02;14.48;;;7.30;;
22646;SDS011;11490;42.726;23.268;2023-04-22T04:27:28;11.15;;;7.40;;
22646;SDS011;11490;42.726;23.268;2023-04-22T04:29:53;13.30;;;7.55;;
22646;SDS011;11490;42.726;23.268;2023-04-22T04:32:22;13.98;;;8.65;;
22646;SDS011;11490;42.726;23.268;2023-04-22T04:34:48;13.38;;;8.85;;
22646;SDS011;11490;42.726;23.268;2023-04-22T04:37:13;13.77;;;7.50;;
22646;SDS011;11490;42.726;23.268;2023-04-22T04:39:38;13.50;;;7.70;;
22646;SDS011;11490;42.726;23.268;2023-04-22T04:42:06;13.23;;;8.18;;
22646;SDS011;11490;42.726;23.268;2023-04-22T04:44:31;14.07;;;7.88;;
22646;SDS011;11490;42.726;23.268;2023-04-22T04:46:57;10.70;;;7.65;;
22646;SDS011;11490;42.726;23.268;2023-04-22T04:49:23;13.82;;;7.75;;
22646;SDS011;11490;42.726;23.268;2023-04-22T04:51:48;139.73;;;48.72;;
22646;SDS011;11490;42.726;23.268;2023-04-22T04:54:14;340.48;;;115.82;;
22646;SDS011;11490;42.726;23.268;2023-04-22T04:56:39;126.45;;;52.15;;
22646;SDS011;11490;42.726;23.268;2023-04-22T04:59:05;67.78;;;30.02;;
22646;SDS011;11490;42.726;23.268;2023-04-22T05:01:30;107.70;;;53.20;;
22646;SDS011;11490;42.726;23.268;2023-04-22T05:03:56;64.55;;;36.75;;
22646;SDS011;11490;42.726;23.268;2023-04-22T05:06:21;22.55;;;15.38;;
22646;SDS011;11490;42.726;23.268;2023-04-22T05:08:46;17.13;;;9.80;;
22646;SDS011;11490;42.726;23.268;2023-04-22T05:11:12;14.85;;;7.03;;
22646;SDS011;11490;42.726;23.268;2023-04-22T05:13:37;11.18;;;6.80;;
22646;SDS011;11490;42.726;23.268;2023-04-22T05:16:03;9.55;;;6.05;;
22646;SDS011;11490;42.726;23.268;2023-04-22T05:18:28;17.60;;;7.68;;
22646;SDS011;11490;42.726;23.268;2023-04-22T05:20:53;7.72;;;5.85;;
22646;SDS011;11490;42.726;23.268;2023-04-22T05:23:19;11.20;;;6.55;;
22646;SDS011;11490;42.726;23.268;2023-04-22T05:25:44;7.70;;;5.10;;
22646;SDS011;11490;42.726;23.268;2023-04-22T05:28:10;8.98;;;5.50;;
22646;SDS011;11490;42.726;23.268;2023-04-22T05:30:35;18.77;;;10.48;;
22646;SDS011;11490;42.726;23.268;2023-04-22T05:33:01;11.00;;;6.47;;
22646;SDS011;11490;42.726;23.268;2023-04-22T05:35:26;10.68;;;5.80;;
22646;SDS011;11490;42.726;23.268;2023-04-22T05:37:52;8.63;;;6.07;;
22646;SDS011;11490;42.726;23.268;2023-04-22T05:40:17;6.75;;;5.28;;
22646;SDS011;11490;42.726;23.268;2023-04-22T05:42:42;8.38;;;5.30;;
22646;SDS011;11490;42.726;23.268;2023-04-22T05:45:08;4.40;;;3.42;;
22646;SDS011;11490;42.726;23.268;2023-04-22T05:47:33;5.53;;;3.92;;
22646;SDS011;11490;42.726;23.268;2023-04-22T05:49:59;6.13;;;4.07;;
22646;SDS011;11490;42.726;23.268;2023-04-22T05:52:25;5.47;;;4.47;;
22646;SDS011;11490;42.726;23.268;2023-04-22T05:54:50;6.32;;;4.28;;
22646;SDS011;11490;42.726;23.268;2023-04-22T05:57:15;5.53;;;4.63;;
22646;SDS011;11490;42.726;23.268;2023-04-22T05:59:41;6.88;;;4.57;;
22646;SDS011;11490;42.726;23.268;2023-04-22T06:02:06;7.35;;;4.97;;
22646;SDS011;11490;42.726;23.268;2023-04-22T06:04:31;5.65;;;4.60;;
22646;SDS011;11490;42.726;23.268;2023-04-22T06:06:57;6.57;;;4.95;;
22646;SDS011;11490;42.726;23.268;2023-04-22T06:09:22;8.43;;;5.10;;
22646;SDS011;11490;42.726;23.268;2023-04-22T06:11:48;6.47;;;4.65;;
22646;SDS011;11490;42.726;23.268;2023-04-22T06:14:13;7.47;;;4.70;;
22646;SDS011;11490;42.726;23.268;2023-04-22T06:16:39;6.53;;;4.57;;
22646;SDS011;11490;42.726;23.268;2023-04-22T06:19:05;7.68;;;4.47;;
22646;SDS011;11490;42.726;23.268;2023-04-22T06:21:30;8.35;;;5.07;;
22646;SDS011;11490;42.726;23.268;2023-04-22T06:24:01;7.05;;;4.80;;
22646;SDS011;11490;42.726;23.268;2023-04-22T06:26:26;6.30;;;4.38;;
22646;SDS011;11490;42.726;23.268;2023-04-22T06:28:52;6.53;;;5.07;;
22646;SDS011;11490;42.726;23.268;2023-04-22T06:31:17;8.75;;;5.45;;
22646;SDS011;11490;42.726;23.268;2023-04-22T06:33:45;6.18;;;4.13;;
22646;SDS011;11490;42.726;23.268;2023-04-22T06:36:11;8.18;;;4.28;;
22646;SDS011;11490;42.726;23.268;2023-04-22T06:38:37;6.40;;;4.38;;
22646;SDS011;11490;42.726;23.268;2023-04-22T06:41:02;6.32;;;4.35;;
22646;SDS011;11490;42.726;23.268;2023-04-22T06:43:27;6.53;;;4.53;;
22646;SDS011;11490;42.726;23.268;2023-04-22T06:45:53;5.97;;;4.03;;
22646;SDS011;11490;42.726;23.268;2023-04-22T06:48:18;6.40;;;4.38;;
22646;SDS011;11490;42.726;23.268;2023-04-22T06:50:44;7.22;;;5.30;;
22646;SDS011;11490;42.726;23.268;2023-04-22T06:53:09;5.65;;;4.47;;
22646;SDS011;11490;42.726;23.268;2023-04-22T06:55:34;6.72;;;4.55;;
22646;SDS011;11490;42.726;23.268;2023-04-22T06:58:00;6.05;;;3.85;;
22646;SDS011;11490;42.726;23.268;2023-04-22T07:00:26;5.90;;;4.47;;
22646;SDS011;11490;42.726;23.268;2023-04-22T07:02:52;6.88;;;4.20;;
22646;SDS011;11490;42.726;23.268;2023-04-22T07:05:17;5.72;;;4.38;;
22646;SDS011;11490;42.726;23.268;2023-04-22T07:07:43;7.43;;;3.97;;
22646;SDS011;11490;42.726;23.268;2023-04-22T07:10:09;6.00;;;4.43;;
22646;SDS011;11490;42.726;23.268;2023-04-22T07:12:37;5.55;;;4.05;;
22646;SDS011;11490;42.726;23.268;2023-04-22T07:15:03;8.60;;;4.13;;
22646;SDS011;11490;42.726;23.268;2023-04-22T07:17:28;9.82;;;5.05;;
22646;SDS011;11490;42.726;23.268;2023-04-22T07:19:54;5.35;;;3.70;;
22646;SDS011;11490;42.726;23.268;2023-04-22T07:22:19;5.13;;;4.55;;
22646;SDS011;11490;42.726;23.268;2023-04-22T07:24:45;4.95;;;3.95;;
22646;SDS011;11490;42.726;23.268;2023-04-22T07:27:10;7.72;;;3.67;;
22646;SDS011;11490;42.726;23.268;2023-04-22T07:29:36;7.03;;;4.20;;
22646;SDS011;11490;42.726;23.268;2023-04-22T07:32:01;11.07;;;4.57;;
22646;SDS011;11490;42.726;23.268;2023-04-22T07:34:26;3.35;;;2.90;;
22646;SDS011;11490;42.726;23.268;2023-04-22T07:36:52;5.47;;;3.50;;
22646;SDS011;11490;42.726;23.268;2023-04-22T07:39:17;4.25;;;3.40;;
22646;SDS011;11490;42.726;23.268;2023-04-22T07:41:43;5.40;;;4.07;;
22646;SDS011;11490;42.726;23.268;2023-04-22T07:44:08;5.55;;;3.55;;
22646;SDS011;11490;42.726;23.268;2023-04-22T07:46:36;6.45;;;4.30;;
22646;SDS011;11490;42.726;23.268;2023-04-22T07:49:01;4.55;;;3.28;;
22646;SDS011;11490;42.726;23.268;2023-04-22T07:51:26;12.20;;;3.80;;
22646;SDS011;11490;42.726;23.268;2023-04-22T07:53:52;6.22;;;4.00;;
22646;SDS011;11490;42.726;23.268;2023-04-22T07:56:17;5.88;;;3.35;;
22646;SDS011;11490;42.726;23.268;2023-04-22T07:58:42;4.30;;;3.25;;
22646;SDS011;11490;42.726;23.268;2023-04-22T08:01:08;4.40;;;3.10;;
22646;SDS011;11490;42.726;23.268;2023-04-22T08:03:33;7.45;;;3.45;;
22646;SDS011;11490;42.726;23.268;2023-04-22T08:05:58;6.82;;;3.67;;
22646;SDS011;11490;42.726;23.268;2023-04-22T08:08:34;3.92;;;3.13;;
22646;SDS011;11490;42.726;23.268;2023-04-22T08:11:02;5.45;;;3.15;;
22646;SDS011;11490;42.726;23.268;2023-04-22T08:13:35;5.63;;;3.92;;
22646;SDS011;11490;42.726;23.268;2023-04-22T08:16:00;8.25;;;3.30;;
22646;SDS011;11490;42.726;23.268;2023-04-22T08:18:29;4.53;;;2.80;;
22646;SDS011;11490;42.726;23.268;2023-04-22T08:20:54;4.45;;;2.72;;
22646;SDS011;11490;42.726;23.268;2023-04-22T08:23:20;5.53;;;2.95;;
22646;SDS011;11490;42.726;23.268;2023-04-22T08:25:46;5.53;;;3.55;;
22646;SDS011;11490;42.726;23.268;2023-04-22T08:28:12;6.78;;;3.60;;
22646;SDS011;11490;42.726;23.268;2023-04-22T08:30:38;5.50;;;2.60;;
22646;SDS011;11490;42.726;23.268;2023-04-22T08:33:03;10.27;;;3.17;;
22646;SDS011;11490;42.726;23.268;2023-04-22T08:35:35;4.97;;;2.92;;
22646;SDS011;11490;42.726;23.268;2023-04-22T08:38:01;4.15;;;2.72;;
22646;SDS011;11490;42.726;23.268;2023-04-22T08:40:26;3.97;;;2.67;;
22646;SDS011;11490;42.726;23.268;2023-04-22T08:42:52;3.72;;;2.88;;
22646;SDS011;11490;42.726;23.268;2023-04-22T08:45:19;3.95;;;3.00;;
22646;SDS011;11490;42.726;23.268;2023-04-22T08:47:45;6.53;;;2.60;;
22646;SDS011;11490;42.726;23.268;2023-04-22T08:50:11;3.47;;;2.40;;
22646;SDS011;11490;42.726;23.268;2023-04-22T08:52:37;5.40;;;2.72;;
22646;SDS011;11490;42.726;23.268;2023-04-22T08:55:03;4.60;;;3.10;;
22646;SDS011;11490;42.726;23.268;2023-04-22T08:57:30;5.00;;;2.92;;
22646;SDS011;11490;42.726;23.268;2023-04-22T08:59:55;5.43;;;2.80;;
22646;SDS011;11490;42.726;23.268;2023-04-22T09:02:22;6.47;;;3.60;;
22646;SDS011;11490;42.726;23.268;2023-04-22T09:04:49;4.85;;;2.78;;
22646;SDS011;11490;42.726;23.268;2023-04-22T09:07:37;3.75;;;2.75;;
22646;SDS011;11490;42.726;23.268;2023-04-22T09:10:02;5.03;;;2.90;;
22646;SDS011;11490;42.726;23.268;2023-04-22T09:12:28;4.90;;;2.83;;
22646;SDS011;11490;42.726;23.268;2023-04-22T09:14:53;6.50;;;3.08;;
22646;SDS011;11490;42.726;23.268;2023-04-22T09:17:30;4.35;;;2.72;;
22646;SDS011;11490;42.726;23.268;2023-04-22T09:20:01;6.85;;;3.63;;
22646;SDS011;11490;42.726;23.268;2023-04-22T09:22:28;4.57;;;2.92;;
22646;SDS011;11490;42.726;23.268;2023-04-22T09:25:13;4.53;;;3.13;;
22646;SDS011;11490;42.726;23.268;2023-04-22T09:27:43;4.35;;;3.10;;
22646;SDS011;11490;42.726;23.268;2023-04-22T09:30:12;4.05;;;3.13;;
22646;SDS011;11490;42.726;23.268;2023-04-22T09:32:38;6.50;;;2.90;;
22646;SDS011;11490;42.726;23.268;2023-04-22T09:35:04;7.00;;;2.70;;
22646;SDS011;11490;42.726;23.268;2023-04-22T09:37:30;7.20;;;2.95;;
22646;SDS011;11490;42.726;23.268;2023-04-22T09:39:57;4.18;;;2.55;;
22646;SDS011;11490;42.726;23.268;2023-04-22T09:42:23;6.55;;;2.92;;
22646;SDS011;11490;42.726;23.268;2023-04-22T09:44:50;3.67;;;2.40;;
22646;SDS011;11490;42.726;23.268;2023-04-22T09:47:19;3.60;;;2.50;;
22646;SDS011;11490;42.726;23.268;2023-04-22T09:49:45;2.72;;;1.67;;
22646;SDS011;11490;42.726;23.268;2023-04-22T09:52:22;2.60;;;1.92;;
22646;SDS011;11490;42.726;23.268;2023-04-22T09:54:49;2.80;;;1.80;;
22646;SDS011;11490;42.726;23.268;2023-04-22T09:57:21;3.08;;;1.90;;
22646;SDS011;11490;42.726;23.268;2023-04-22T09:59:51;3.45;;;2.00;;
22646;SDS011;11490;42.726;23.268;2023-04-22T10:02:17;2.50;;;1.75;;
22646;SDS011;11490;42.726;23.268;2023-04-22T10:04:42;1.63;;;1.40;;
22646;SDS011;11490;42.726;23.268;2023-04-22T10:07:09;3.90;;;1.50;;
22646;SDS011;11490;42.726;23.268;2023-04-22T10:09:35;3.28;;;1.67;;
22646;SDS011;11490;42.726;23.268;2023-04-22T10:12:04;4.13;;;1.70;;
22646;SDS011;11490;42.726;23.268;2023-04-22T10:14:29;2.53;;;1.90;;
22646;SDS011;11490;42.726;23.268;2023-04-22T10:16:55;2.40;;;1.83;;
22646;SDS011;11490;42.726;23.268;2023-04-22T10:19:23;2.42;;;1.30;;
22646;SDS011;11490;42.726;23.268;2023-04-22T10:21:57;2.05;;;1.35;;
22646;SDS011;11490;42.726;23.268;2023-04-22T10:24:26;2.85;;;1.65;;
22646;SDS011;11490;42.726;23.268;2023-04-22T10:26:56;2.65;;;1.90;;
22646;SDS011;11490;42.726;23.268;2023-04-22T10:29:23;3.20;;;1.60;;
22646;SDS011;11490;42.726;23.268;2023-04-22T10:32:02;2.17;;;1.85;;
22646;SDS011;11490;42.726;23.268;2023-04-22T10:34:30;5.05;;;2.25;;
22646;SDS011;11490;42.726;23.268;2023-04-22T10:37:09;3.42;;;2.25;;
22646;SDS011;11490;42.726;23.268;2023-04-22T10:39:35;2.55;;;1.70;;
22646;SDS011;11490;42.726;23.268;2023-04-22T10:42:11;1.88;;;1.52;;
22646;SDS011;11490;42.726;23.268;2023-04-22T10:44:49;3.58;;;2.10;;
22646;SDS011;11490;42.726;23.268;2023-04-22T10:47:23;5.47;;;1.63;;
22646;SDS011;11490;42.726;23.268;2023-04-22T10:50:08;2.03;;;1.50;;
22646;SDS011;11490;42.726;23.268;2023-04-22T10:52:36;2.42;;;1.85;;
22646;SDS011;11490;42.726;23.268;2023-04-22T10:55:02;2.72;;;1.73;;
22646;SDS011;11490;42.726;23.268;2023-04-22T10:57:28;2.50;;;1.80;;
22646;SDS011;11490;42.726;23.268;2023-04-22T11:00:14;5.72;;;2.28;;
22646;SDS011;11490;42.726;23.268;2023-04-22T11:02:50;4.72;;;1.98;;
22646;SDS011;11490;42.726;23.268;2023-04-22T11:05:39;3.40;;;2.20;;
22646;SDS011;11490;42.726;23.268;2023-04-22T11:08:14;3.35;;;2.22;;
22646;SDS011;11490;42.726;23.268;2023-04-22T11:10:48;2.50;;;2.10;;
22646;SDS011;11490;42.726;23.268;2023-04-22T11:13:19;3.58;;;1.50;;
22646;SDS011;11490;42.726;23.268;2023-04-22T11:15:49;2.05;;;1.40;;
22646;SDS011;11490;42.726;23.268;2023-04-22T11:18:22;1.60;;;1.38;;
22646;SDS011;11490;42.726;23.268;2023-04-22T11:20:49;2.35;;;1.85;;
22646;SDS011;11490;42.726;23.268;2023-04-22T11:25:56;6.43;;;3.00;;
22646;SDS011;11490;42.726;23.268;2023-04-22T11:28:23;3.35;;;2.50;;
22646;SDS011;11490;42.726;23.268;2023-04-22T11:30:49;2.40;;;2.00;;
22646;SDS011;11490;42.726;23.268;2023-04-22T11:33:15;2.80;;;1.88;;
22646;SDS011;11490;42.726;23.268;2023-04-22T11:35:41;1.42;;;1.17;;
22646;SDS011;11490;42.726;23.268;2023-04-22T11:38:10;7.78;;;2.08;;
22646;SDS011;11490;42.726;23.268;2023-04-22T11:40:36;2.35;;;1.77;;
22646;SDS011;11490;42.726;23.268;2023-04-22T11:43:04;2.55;;;1.90;;
22646;SDS011;11490;42.726;23.268;2023-04-22T11:45:35;3.75;;;2.08;;
22646;SDS011;11490;42.726;23.268;2023-04-22T11:48:02;2.35;;;1.70;;
22646;SDS011;11490;42.726;23.268;2023-04-22T11:50:31;3.53;;;2.42;;
22646;SDS011;11490;42.726;23.268;2023-04-22T11:53:00;3.00;;;2.03;;
22646;SDS011;11490;42.726;23.268;2023-04-22T11:55:34;4.90;;;2.38;;
22646;SDS011;11490;42.726;23.268;2023-04-22T11:58:07;4.07;;;2.20;;
22646;SDS011;11490;42.726;23.268;2023-04-22T12:00:36;3.33;;;2.00;;
22646;SDS011;11490;42.726;23.268;2023-04-22T12:03:04;3.05;;;2.17;;
22646;SDS011;11490;42.726;23.268;2023-04-22T12:08:19;3.92;;;2.70;;
22646;SDS011;11490;42.726;23.268;2023-04-22T12:10:48;2.38;;;2.17;;
22646;SDS011;11490;42.726;23.268;2023-04-22T12:18:34;3.08;;;2.28;;
22646;SDS011;11490;42.726;23.268;2023-04-22T12:23:53;4.35;;;2.55;;
22646;SDS011;11490;42.726;23.268;2023-04-22T12:26:23;5.45;;;3.08;;
22646;SDS011;11490;42.726;23.268;2023-04-22T12:28:50;3.28;;;1.92;;
22646;SDS011;11490;42.726;23.268;2023-04-22T12:31:16;4.82;;;2.88;;
22646;SDS011;11490;42.726;23.268;2023-04-22T12:33:42;2.55;;;2.00;;
22646;SDS011;11490;42.726;23.268;2023-04-22T12:36:08;3.60;;;2.30;;
22646;SDS011;11490;42.726;23.268;2023-04-22T12:38:34;4.18;;;2.70;;
22646;SDS011;11490;42.726;23.268;2023-04-22T12:41:00;3.63;;;2.20;;
22646;SDS011;11490;42.726;23.268;2023-04-22T12:43:27;3.95;;;2.55;;
22646;SDS011;11490;42.726;23.268;2023-04-22T12:45:52;4.15;;;2.20;;
22646;SDS011;11490;42.726;23.268;2023-04-22T12:48:17;7.82;;;2.10;;
22646;SDS011;11490;42.726;23.268;2023-04-22T12:50:43;3.28;;;2.17;;
22646;SDS011;11490;42.726;23.268;2023-04-22T12:53:08;3.83;;;2.22;;
22646;SDS011;11490;42.726;23.268;2023-04-22T12:55:34;4.03;;;2.30;;
22646;SDS011;11490;42.726;23.268;2023-04-22T12:58:00;3.85;;;2.80;;
22646;SDS011;11490;42.726;23.268;2023-04-22T13:00:26;2.67;;;2.25;;
22646;SDS011;11490;42.726;23.268;2023-04-22T13:02:52;5.00;;;2.35;;
22646;SDS011;11490;42.726;23.268;2023-04-22T13:05:17;3.22;;;2.10;;
22646;SDS011;11490;42.726;23.268;2023-04-22T13:07:44;3.05;;;2.35;;
22646;SDS011;11490;42.726;23.268;2023-04-22T13:44:35;10.13;;;5.00;;
22646;SDS011;11490;42.726;23.268;2023-04-22T13:47:01;3.33;;;2.97;;
22646;SDS011;11490;42.726;23.268;2023-04-22T13:49:27;3.45;;;2.35;;
22646;SDS011;11490;42.726;23.268;2023-04-22T13:51:53;4.45;;;2.45;;
22646;SDS011;11490;42.726;23.268;2023-04-22T13:54:18;6.80;;;2.17;;
22646;SDS011;11490;42.726;23.268;2023-04-22T13:56:44;4.90;;;2.33;;
22646;SDS011;11490;42.726;23.268;2023-04-22T13:59:09;7.03;;;2.58;;
22646;SDS011;11490;42.726;23.268;2023-04-22T14:01:35;6.13;;;2.20;;
22646;SDS011;11490;42.726;23.268;2023-04-22T14:04:01;4.00;;;2.42;;
22646;SDS011;11490;42.726;23.268;2023-04-22T14:06:27;5.28;;;2.78;;
22646;SDS011;11490;42.726;23.268;2023-04-22T14:08:52;3.47;;;2.60;;
22646;SDS011;11490;42.726;23.268;2023-04-22T14:11:18;2.88;;;1.95;;
22646;SDS011;11490;42.726;23.268;2023-04-22T14:13:43;4.22;;;2.60;;
22646;SDS011;11490;42.726;23.268;2023-04-22T14:16:09;3.63;;;3.08;;
22646;SDS011;11490;42.726;23.268;2023-04-22T14:18:36;4.88;;;3.35;;
22646;SDS011;11490;42.726;23.268;2023-04-22T14:21:04;4.60;;;3.17;;
22646;SDS011;11490;42.726;23.268;2023-04-22T14:23:32;3.20;;;2.20;;
22646;SDS011;11490;42.726;23.268;2023-04-22T14:25:58;6.80;;;2.70;;
22646;SDS011;11490;42.726;23.268;2023-04-22T14:28:24;5.75;;;2.40;;
22646;SDS011;11490;42.726;23.268;2023-04-22T14:30:50;3.20;;;2.50;;
22646;SDS011;11490;42.726;23.268;2023-04-22T14:33:15;4.20;;;2.42;;
22646;SDS011;11490;42.726;23.268;2023-04-22T14:35:41;3.08;;;2.30;;
22646;SDS011;11490;42.726;23.268;2023-04-22T14:38:07;3.20;;;2.47;;
22646;SDS011;11490;42.726;23.268;2023-04-22T14:40:34;9.80;;;2.25;;
22646;SDS011;11490;42.726;23.268;2023-04-22T14:43:00;5.20;;;2.72;;
22646;SDS011;11490;42.726;23.268;2023-04-22T14:45:27;4.55;;;2.63;;
22646;SDS011;11490;42.726;23.268;2023-04-22T14:47:55;5.55;;;3.20;;
22646;SDS011;11490;42.726;23.268;2023-04-22T14:50:27;4.18;;;2.22;;
22646;SDS011;11490;42.726;23.268;2023-04-22T14:52:53;2.75;;;2.17;;
22646;SDS011;11490;42.726;23.268;2023-04-22T14:55:18;4.40;;;2.60;;
22646;SDS011;11490;42.726;23.268;2023-04-22T14:57:45;3.33;;;2.28;;
22646;SDS011;11490;42.726;23.268;2023-04-22T15:00:11;3.58;;;2.28;;
22646;SDS011;11490;42.726;23.268;2023-04-22T15:02:37;2.83;;;2.40;;
22646;SDS011;11490;42.726;23.268;2023-04-22T15:05:03;4.47;;;2.70;;
22646;SDS011;11490;42.726;23.268;2023-04-22T15:07:28;2.35;;;1.98;;
22646;SDS011;11490;42.726;23.268;2023-04-22T15:09:54;2.67;;;1.92;;
22646;SDS011;11490;42.726;23.268;2023-04-22T15:12:22;4.75;;;1.75;;